• Join FlightAware (Why Join?)
  • Login
  • US Flag 
11:00AM EDT


 

Airport Tracker/Info


-or-


 

Live Flight TrackerFlight Track Log ✈ ASQ4372 ✈ 31-Jan-2014 ✈ KORD - KSYR

Flight Track Log - Related Links

Times and Time Zones

All times are in EST time to prevent confusion due to time zone crossing. See the ASQ4372 flight status page for this flight to view local times or setup timezone preferences in your user account.

Time Position Orientation Groundspeed Altitude Reporting Facility
EST Latitude Longitude Course Direction KTS MPH feet Rate Location/Type
09:30PM 42.0000 -87.9500 14° North 171 197 1,800  Level Chicago TRACON
09:31PM 42.0500 -87.9333 14° North 221 254 3,600 2,040 Climbing Chicago TRACON
09:32PM 42.1000 -87.8833 37° Northeast 258 297 5,900 2,160 Climbing Chicago TRACON
09:33PM 42.1136 -87.7058 84° East 283 326 9,800 2,100 Climbing Chicago Center
09:34PM 42.1144 -87.5981 89° East 294 338 11,700 1,800 Climbing Chicago Center
09:36PM 42.1133 -87.4806 91° East 310 357 13,500 1,440 Climbing Chicago Center
09:37PM 42.1142 -87.3533 89° East 334 384 14,700 1,020 Climbing Chicago Center
09:38PM 42.1128 -87.2150 91° East 364 419 15,700 1,020 Climbing Chicago Center
09:39PM 42.1119 -87.0681 90° East 388 447 16,800 1,080 Climbing Chicago Center
09:40PM 42.1186 -86.9031 87° East 412 474 17,900 1,260 Climbing Chicago Center
09:41PM 42.1236 -86.7458 87° East 419 482 19,400 1,680 Climbing Chicago Center
09:42PM 42.1292 -86.5900 87° East 419 482 21,400 1,800 Climbing Chicago Center
09:43PM 42.1350 -86.4031 88° East 417 480 23,200 1,560 Climbing Chicago Center
09:44PM 42.1397 -86.2439 88° East 423 487 24,700 1,140 Climbing Chicago Center
09:45PM 42.1431 -86.0786 88° East 436 502 25,600 840 Climbing Chicago Center
09:46PM 42.1419 -85.9214 90° East 451 519 26,500 900 Climbing Chicago Center
09:47PM 42.1417 -85.7475 90° East 463 533 27,500 1,020 Climbing Chicago Center
09:48PM 42.1397 -85.5333 91° East 475 547 28,600 1,020 Climbing Chicago Center
09:49PM 42.1372 -85.3539 91° East 480 552 29,600 900 Climbing Chicago Center
09:50PM 42.1353 -85.1722 91° East 486 559 30,500 900 Climbing Chicago Center
09:51PM 42.1367 -84.9867 89° East 495 570 31,500 720 Climbing Chicago Center
09:52PM 42.1500 -84.7953 85° East 511 588 32,000 240 Climbing Chicago Center
09:53PM 42.1739 -84.5978 81° East 533 613 32,000  Level Chicago Center
09:54PM 42.2061 -84.3889 78° East 566 651 32,000  Level Chicago Center
09:55PM 42.2350 -84.1889 79° East 572 658 32,000  Level Cleveland Center
09:56PM 42.2650 -83.9775 79° East 572 658 32,000 240 Level Cleveland Center
09:57PM 42.2950 -83.7672 79° East 572 658 32,500 480 Climbing Cleveland Center
09:58PM 42.3236 -83.5567 80° East 570 656 33,000 240 Climbing Cleveland Center
09:59PM 42.3533 -83.3439 79° East 566 651 33,000  Level Cleveland Center
10:00PM 42.3842 -83.1192 79° East 577 664 33,000  Level Cleveland Center
10:01PM 42.4133 -82.9019 80° East 586 674 33,000  Level Cleveland Center
10:02PM 42.4425 -82.6808 80° East 594 684 33,000  Level Cleveland Center
10:03PM 42.4708 -82.4631 80° East 592 681 33,000  Level Cleveland Center
10:04PM 42.4981 -82.2467 80° East 588 677 33,000  Level Cleveland Center
10:05PM 42.5269 -82.0289 80° East 588 677 33,000  Level Cleveland Center
10:06PM 42.5531 -81.8083 81° East 591 680 33,000  Level Cleveland Center
10:07PM 42.5817 -81.5742 81° East 596 686 33,000  Level Cleveland Center
10:08PM 42.6094 -81.3503 80° East 596 686 33,000  Level Cleveland Center
10:09PM 42.6356 -81.1264 81° East 596 686 33,000  Level Cleveland Center
10:10PM 42.6622 -80.9011 81° East 596 686 33,000  Level Cleveland Center
10:11PM 42.6878 -80.6811 81° East 587 676 33,000  Level Cleveland Center
10:12PM 42.7128 -80.4592 81° East 585 673 33,000  Level Cleveland Center
10:13PM 42.7431 -80.1958 81° East 597 687 33,000  Level Cleveland Center
10:14PM 42.7658 -79.9758 82° East 592 681 33,000  Level Cleveland Center
10:15PM 42.7878 -79.7672 82° East 586 674 33,000 -300 Level Cleveland Center
10:16PM 42.8106 -79.5511 82° East 580 667 32,400 -1,020 Descending Cleveland Center
10:17PM 42.8325 -79.3361 82° East 577 664 31,000 -1,380 Descending Cleveland Center
10:18PM 42.8531 -79.1250 82° East 567 652 29,600 -1,320 Descending Cleveland Center
10:19PM 42.8728 -78.9161 83° East 560 644 28,300 -840 Descending Cleveland Center
10:20PM 42.8933 -78.6992 83° East 571 657 28,000 -240 Descending Cleveland Center
10:21PM 42.9183 -78.4411 82° East 571 657 27,900 -600 Descending Cleveland Center
10:22PM 42.9369 -78.2256 83° East 571 657 26,800 -1,560 Descending Cleveland Center
10:23PM 42.9575 -78.0083 83° East 573 659 24,800 -2,400 Descending Cleveland Center
10:24PM 42.9753 -77.8033 83° East 546 628 22,000 -2,760 Descending Cleveland Center
10:25PM 42.9925 -77.6047 83° East 530 610 19,200 -2,520 Descending Cleveland Center
10:26PM 43.0094 -77.4214 83° East 495 570 16,900 -2,100 Descending Cleveland Center
10:27PM 43.0214 -77.2592 84° East 459 528 15,000 -1,980 Descending Cleveland Center
10:28PM 43.0339 -77.1128 83° East 399 459 12,900 -1,860 Descending Cleveland Center
10:29PM 43.0450 -76.9669 84° East 387 445 11,300 -1,020 Descending Cleveland Center
10:30PM 43.0572 -76.8186 84° East 389 448 10,900 -600 Descending Cleveland Center
10:31PM 43.0597 -76.6939 88° East 343 395 10,100 -1,320 Descending Cleveland Center
10:32PM 43.0631 -76.5983 87° East 318 366 8,600 -2,160 Descending Boston Center
10:32PM 43.0631 -76.5803 90° East 306 352 8,300 -1,500 Descending Boston Center
10:33PM 43.0683 -76.4864 86° East 300 345 7,100 -1,440 Descending Boston Center
10:33PM 43.0683 -76.4625 90° East 289 333 6,800 -1,680 Descending Boston Center
10:34PM 43.0625 -76.3839 96° East 276 318 5,400 -1,440 Descending Boston Center
10:35PM 43.0539 -76.2792 96° East 276 318 4,100 -1,320 Descending Boston Center
10:36PM 43.0497 -76.2464 100° East 280 322 3,800 -840 Descending Boston Center
10:36PM 43.0461 -76.1758 94° East 276 318 3,300 -600 Descending Boston Center
10:37PM 43.0492 -76.1497 81° East 258 297 3,200 -900 Descending Boston Center
10:37PM 43.0500 -76.0847 89° East 256 295 2,400 -1,200 Descending Boston Center
10:38PM 43.0525 -76.0547 83° East 223 257 2,000 -780 Descending Boston Center
10:39PM 43.0817 -76.0200 41° Northeast 158 182 1,500 -480 Descending Boston Center
10:39PM 43.1125 -76.0383 337° Northwest 168 193 1,200 -420 Descending Boston Center
10:40PM 43.1133 -76.0475 277° West 126 145 1,100 -720 Descending Boston Center
10:40PM 43.1097 -76.0858 263° West 142 163 500 -720 Descending Boston Center